sensor_id;sensor_type;location;lat;lon;timestamp;P1;durP1;ratioP1;P2;durP2;ratioP2
21251;SDS011;10784;50.578;17.878;2023-04-24T00:01:20;14.20;;;5.53;;
21251;SDS011;10784;50.578;17.878;2023-04-24T00:03:52;14.98;;;6.05;;
21251;SDS011;10784;50.578;17.878;2023-04-24T00:06:26;14.90;;;6.22;;
21251;SDS011;10784;50.578;17.878;2023-04-24T00:09:05;10.15;;;6.07;;
21251;SDS011;10784;50.578;17.878;2023-04-24T00:11:38;15.18;;;7.10;;
21251;SDS011;10784;50.578;17.878;2023-04-24T00:14:10;11.10;;;5.90;;
21251;SDS011;10784;50.578;17.878;2023-04-24T00:16:44;11.48;;;5.82;;
21251;SDS011;10784;50.578;17.878;2023-04-24T00:19:16;13.98;;;6.03;;
21251;SDS011;10784;50.578;17.878;2023-04-24T00:21:49;15.90;;;6.25;;
21251;SDS011;10784;50.578;17.878;2023-04-24T00:24:22;15.75;;;6.93;;
21251;SDS011;10784;50.578;17.878;2023-04-24T00:26:55;15.82;;;6.60;;
21251;SDS011;10784;50.578;17.878;2023-04-24T00:29:28;16.83;;;6.20;;
21251;SDS011;10784;50.578;17.878;2023-04-24T00:32:02;15.98;;;6.00;;
21251;SDS011;10784;50.578;17.878;2023-04-24T00:34:37;18.25;;;6.75;;
21251;SDS011;10784;50.578;17.878;2023-04-24T00:37:10;15.93;;;6.15;;
21251;SDS011;10784;50.578;17.878;2023-04-24T00:39:43;14.27;;;6.53;;
21251;SDS011;10784;50.578;17.878;2023-04-24T00:42:17;17.65;;;7.13;;
21251;SDS011;10784;50.578;17.878;2023-04-24T00:44:50;14.07;;;6.65;;
21251;SDS011;10784;50.578;17.878;2023-04-24T00:47:23;17.52;;;7.15;;
21251;SDS011;10784;50.578;17.878;2023-04-24T00:49:56;19.13;;;7.10;;
21251;SDS011;10784;50.578;17.878;2023-04-24T00:52:29;15.05;;;5.90;;
21251;SDS011;10784;50.578;17.878;2023-04-24T00:55:04;10.98;;;5.97;;
21251;SDS011;10784;50.578;17.878;2023-04-24T00:57:38;16.73;;;6.53;;
21251;SDS011;10784;50.578;17.878;2023-04-24T01:00:11;12.85;;;6.45;;
21251;SDS011;10784;50.578;17.878;2023-04-24T01:02:45;12.35;;;5.80;;
21251;SDS011;10784;50.578;17.878;2023-04-24T01:05:18;15.70;;;5.78;;
21251;SDS011;10784;50.578;17.878;2023-04-24T01:07:51;18.67;;;6.55;;
21251;SDS011;10784;50.578;17.878;2023-04-24T01:10:24;11.20;;;4.70;;
21251;SDS011;10784;50.578;17.878;2023-04-24T01:12:58;11.02;;;4.70;;
21251;SDS011;10784;50.578;17.878;2023-04-24T01:15:31;10.27;;;5.88;;
21251;SDS011;10784;50.578;17.878;2023-04-24T01:18:04;9.00;;;4.95;;
21251;SDS011;10784;50.578;17.878;2023-04-24T01:20:38;9.48;;;4.57;;
21251;SDS011;10784;50.578;17.878;2023-04-24T01:23:12;11.60;;;5.30;;
21251;SDS011;10784;50.578;17.878;2023-04-24T01:25:45;6.68;;;3.95;;
21251;SDS011;10784;50.578;17.878;2023-04-24T01:28:18;8.15;;;4.10;;
21251;SDS011;10784;50.578;17.878;2023-04-24T01:30:51;8.55;;;5.15;;
21251;SDS011;10784;50.578;17.878;2023-04-24T01:33:28;13.10;;;5.03;;
21251;SDS011;10784;50.578;17.878;2023-04-24T01:36:01;7.47;;;3.90;;
21251;SDS011;10784;50.578;17.878;2023-04-24T01:38:34;14.13;;;5.22;;
21251;SDS011;10784;50.578;17.878;2023-04-24T01:41:07;13.30;;;5.15;;
21251;SDS011;10784;50.578;17.878;2023-04-24T01:43:40;11.00;;;5.18;;
21251;SDS011;10784;50.578;17.878;2023-04-24T01:46:13;6.78;;;4.53;;
21251;SDS011;10784;50.578;17.878;2023-04-24T01:48:46;10.18;;;4.85;;
21251;SDS011;10784;50.578;17.878;2023-04-24T01:51:19;12.50;;;4.75;;
21251;SDS011;10784;50.578;17.878;2023-04-24T01:53:52;6.72;;;4.65;;
21251;SDS011;10784;50.578;17.878;2023-04-24T01:56:25;10.85;;;5.65;;
21251;SDS011;10784;50.578;17.878;2023-04-24T01:59:01;15.77;;;6.00;;
21251;SDS011;10784;50.578;17.878;2023-04-24T02:01:35;12.10;;;5.78;;
21251;SDS011;10784;50.578;17.878;2023-04-24T02:04:11;10.35;;;4.78;;
21251;SDS011;10784;50.578;17.878;2023-04-24T02:06:45;10.65;;;5.03;;
21251;SDS011;10784;50.578;17.878;2023-04-24T02:09:18;10.93;;;5.40;;
21251;SDS011;10784;50.578;17.878;2023-04-24T02:11:51;12.38;;;4.68;;
21251;SDS011;10784;50.578;17.878;2023-04-24T02:14:24;9.75;;;4.53;;
21251;SDS011;10784;50.578;17.878;2023-04-24T02:16:57;15.77;;;5.82;;
21251;SDS011;10784;50.578;17.878;2023-04-24T02:19:30;11.40;;;5.68;;
21251;SDS011;10784;50.578;17.878;2023-04-24T02:22:03;11.65;;;5.63;;
21251;SDS011;10784;50.578;17.878;2023-04-24T02:24:37;16.15;;;5.82;;
21251;SDS011;10784;50.578;17.878;2023-04-24T02:27:15;13.70;;;5.63;;
21251;SDS011;10784;50.578;17.878;2023-04-24T02:29:48;19.83;;;5.38;;
21251;SDS011;10784;50.578;17.878;2023-04-24T02:32:23;15.55;;;6.75;;
21251;SDS011;10784;50.578;17.878;2023-04-24T02:35:07;10.20;;;5.45;;
21251;SDS011;10784;50.578;17.878;2023-04-24T02:37:40;8.55;;;4.95;;
21251;SDS011;10784;50.578;17.878;2023-04-24T02:40:33;14.63;;;4.93;;
21251;SDS011;10784;50.578;17.878;2023-04-24T02:43:15;25.83;;;6.63;;
21251;SDS011;10784;50.578;17.878;2023-04-24T02:45:48;13.18;;;6.40;;
21251;SDS011;10784;50.578;17.878;2023-04-24T02:48:21;15.35;;;6.40;;
21251;SDS011;10784;50.578;17.878;2023-04-24T02:50:54;11.57;;;5.90;;
21251;SDS011;10784;50.578;17.878;2023-04-24T02:53:27;15.60;;;6.88;;
21251;SDS011;10784;50.578;17.878;2023-04-24T02:56:00;10.10;;;5.50;;
21251;SDS011;10784;50.578;17.878;2023-04-24T02:58:33;17.13;;;5.85;;
21251;SDS011;10784;50.578;17.878;2023-04-24T03:01:06;23.08;;;6.05;;
21251;SDS011;10784;50.578;17.878;2023-04-24T03:03:40;9.00;;;5.50;;
21251;SDS011;10784;50.578;17.878;2023-04-24T03:06:17;15.98;;;6.90;;
21251;SDS011;10784;50.578;17.878;2023-04-24T03:08:50;11.05;;;4.82;;
21251;SDS011;10784;50.578;17.878;2023-04-24T03:11:24;16.83;;;5.43;;
21251;SDS011;10784;50.578;17.878;2023-04-24T03:13:57;18.80;;;5.80;;
21251;SDS011;10784;50.578;17.878;2023-04-24T03:16:30;25.58;;;8.00;;
21251;SDS011;10784;50.578;17.878;2023-04-24T03:19:03;17.25;;;6.88;;
21251;SDS011;10784;50.578;17.878;2023-04-24T03:21:39;18.25;;;7.00;;
21251;SDS011;10784;50.578;17.878;2023-04-24T03:24:17;15.32;;;7.07;;
21251;SDS011;10784;50.578;17.878;2023-04-24T03:26:51;14.32;;;6.60;;
21251;SDS011;10784;50.578;17.878;2023-04-24T03:29:46;18.98;;;7.43;;
21251;SDS011;10784;50.578;17.878;2023-04-24T03:32:22;15.95;;;5.75;;
21251;SDS011;10784;50.578;17.878;2023-04-24T03:34:56;17.42;;;6.53;;
21251;SDS011;10784;50.578;17.878;2023-04-24T03:37:29;16.08;;;6.60;;
21251;SDS011;10784;50.578;17.878;2023-04-24T03:40:29;13.40;;;6.03;;
21251;SDS011;10784;50.578;17.878;2023-04-24T03:43:03;10.60;;;6.28;;
21251;SDS011;10784;50.578;17.878;2023-04-24T03:45:37;14.07;;;6.03;;
21251;SDS011;10784;50.578;17.878;2023-04-24T03:48:11;16.33;;;5.55;;
21251;SDS011;10784;50.578;17.878;2023-04-24T03:50:43;17.88;;;5.90;;
21251;SDS011;10784;50.578;17.878;2023-04-24T03:53:17;10.90;;;5.90;;
21251;SDS011;10784;50.578;17.878;2023-04-24T03:55:53;17.17;;;5.93;;
21251;SDS011;10784;50.578;17.878;2023-04-24T03:58:26;14.05;;;6.30;;
21251;SDS011;10784;50.578;17.878;2023-04-24T04:01:00;13.63;;;5.82;;
21251;SDS011;10784;50.578;17.878;2023-04-24T04:03:56;15.38;;;6.57;;
21251;SDS011;10784;50.578;17.878;2023-04-24T04:06:31;11.18;;;5.65;;
21251;SDS011;10784;50.578;17.878;2023-04-24T04:09:06;11.32;;;6.30;;
21251;SDS011;10784;50.578;17.878;2023-04-24T04:11:40;13.77;;;6.28;;
21251;SDS011;10784;50.578;17.878;2023-04-24T04:14:13;15.55;;;6.15;;
21251;SDS011;10784;50.578;17.878;2023-04-24T04:16:50;12.05;;;6.15;;
21251;SDS011;10784;50.578;17.878;2023-04-24T04:19:26;15.60;;;6.45;;
21251;SDS011;10784;50.578;17.878;2023-04-24T04:21:58;12.15;;;5.85;;
21251;SDS011;10784;50.578;17.878;2023-04-24T04:24:50;11.50;;;5.93;;
21251;SDS011;10784;50.578;17.878;2023-04-24T04:27:26;11.45;;;6.47;;
21251;SDS011;10784;50.578;17.878;2023-04-24T04:30:08;17.05;;;5.88;;
21251;SDS011;10784;50.578;17.878;2023-04-24T04:32:56;10.52;;;5.65;;
21251;SDS011;10784;50.578;17.878;2023-04-24T04:35:29;13.45;;;6.40;;
21251;SDS011;10784;50.578;17.878;2023-04-24T04:38:03;10.65;;;5.32;;
21251;SDS011;10784;50.578;17.878;2023-04-24T04:40:51;12.57;;;6.20;;
21251;SDS011;10784;50.578;17.878;2023-04-24T04:43:25;17.33;;;7.05;;
21251;SDS011;10784;50.578;17.878;2023-04-24T04:45:59;17.27;;;7.22;;
21251;SDS011;10784;50.578;17.878;2023-04-24T04:48:33;17.80;;;8.00;;
21251;SDS011;10784;50.578;17.878;2023-04-24T04:51:09;14.38;;;7.07;;
21251;SDS011;10784;50.578;17.878;2023-04-24T04:53:42;22.92;;;8.45;;
21251;SDS011;10784;50.578;17.878;2023-04-24T04:56:19;15.60;;;8.45;;
21251;SDS011;10784;50.578;17.878;2023-04-24T04:58:51;15.48;;;7.20;;
